sensor_id;sensor_type;location;lat;lon;timestamp;pressure;altitude;pressure_sealevel;temperature;humidity
58622;BME280;44389;51.578;5.456;2023-10-31T00:01:20;99536.56;;;8.74;100.00
58622;BME280;44389;51.578;5.456;2023-10-31T00:03:45;99540.84;;;8.75;100.00
58622;BME280;44389;51.578;5.456;2023-10-31T00:06:11;99536.63;;;8.79;100.00
58622;BME280;44389;51.578;5.456;2023-10-31T00:08:36;99537.53;;;8.81;100.00
58622;BME280;44389;51.578;5.456;2023-10-31T00:11:01;99534.94;;;8.81;100.00
58622;BME280;44389;51.578;5.456;2023-10-31T00:13:27;99549.47;;;8.80;100.00
58622;BME280;44389;51.578;5.456;2023-10-31T00:15:52;99545.22;;;8.79;100.00
58622;BME280;44389;51.578;5.456;2023-10-31T00:18:17;99558.88;;;8.77;100.00
58622;BME280;44389;51.578;5.456;2023-10-31T00:20:43;99562.25;;;8.74;100.00
58622;BME280;44389;51.578;5.456;2023-10-31T00:23:08;99563.09;;;8.73;100.00
58622;BME280;44389;51.578;5.456;2023-10-31T00:25:33;99567.34;;;8.72;100.00
58622;BME280;44389;51.578;5.456;2023-10-31T00:27:58;99559.63;;;8.71;100.00
58622;BME280;44389;51.578;5.456;2023-10-31T00:30:24;99559.63;;;8.71;100.00
58622;BME280;44389;51.578;5.456;2023-10-31T00:32:49;99559.56;;;8.66;100.00
58622;BME280;44389;51.578;5.456;2023-10-31T00:35:14;99561.25;;;8.67;100.00
58622;BME280;44389;51.578;5.456;2023-10-31T00:37:40;99561.25;;;8.66;100.00
58622;BME280;44389;51.578;5.456;2023-10-31T00:40:08;99573.22;;;8.64;100.00
58622;BME280;44389;51.578;5.456;2023-10-31T00:42:39;99573.22;;;8.64;100.00
58622;BME280;44389;51.578;5.456;2023-10-31T00:45:06;99569.75;;;8.62;100.00
58622;BME280;44389;51.578;5.456;2023-10-31T00:47:31;99572.28;;;8.59;100.00
58622;BME280;44389;51.578;5.456;2023-10-31T00:49:57;99577.41;;;8.59;100.00
58622;BME280;44389;51.578;5.456;2023-10-31T00:52:22;99579.97;;;8.59;100.00
58622;BME280;44389;51.578;5.456;2023-10-31T00:54:47;99588.56;;;8.61;100.00
58622;BME280;44389;51.578;5.456;2023-10-31T00:57:13;99588.50;;;8.57;100.00
58622;BME280;44389;51.578;5.456;2023-10-31T00:59:38;99589.38;;;8.60;100.00
58622;BME280;44389;51.578;5.456;2023-10-31T01:02:04;99589.38;;;8.60;100.00
58622;BME280;44389;51.578;5.456;2023-10-31T01:04:30;99591.94;;;8.60;100.00
58622;BME280;44389;51.578;5.456;2023-10-31T01:06:56;99591.13;;;8.61;100.00
58622;BME280;44389;51.578;5.456;2023-10-31T01:09:21;99603.97;;;8.61;100.00
58622;BME280;44389;51.578;5.456;2023-10-31T01:11:47;99608.22;;;8.59;100.00
58622;BME280;44389;51.578;5.456;2023-10-31T01:14:12;99613.38;;;8.60;100.00
58622;BME280;44389;51.578;5.456;2023-10-31T01:16:39;99608.22;;;8.59;100.00
58622;BME280;44389;51.578;5.456;2023-10-31T01:19:05;99606.50;;;8.57;100.00
58622;BME280;44389;51.578;5.456;2023-10-31T01:21:30;99609.88;;;8.56;100.00
58622;BME280;44389;51.578;5.456;2023-10-31T01:23:55;99613.34;;;8.59;100.00
58622;BME280;44389;51.578;5.456;2023-10-31T01:26:20;99599.63;;;8.58;100.00
58622;BME280;44389;51.578;5.456;2023-10-31T01:28:46;99613.31;;;8.57;100.00
58622;BME280;44389;51.578;5.456;2023-10-31T01:31:11;99611.63;;;8.57;100.00
58622;BME280;44389;51.578;5.456;2023-10-31T01:33:36;99609.06;;;8.57;100.00
58622;BME280;44389;51.578;5.456;2023-10-31T01:36:02;99615.03;;;8.58;100.00
58622;BME280;44389;51.578;5.456;2023-10-31T01:38:30;99614.19;;;8.57;100.00
58622;BME280;44389;51.578;5.456;2023-10-31T01:40:55;99616.75;;;8.57;100.00
58622;BME280;44389;51.578;5.456;2023-10-31T01:43:34;99610.78;;;8.59;100.00
58622;BME280;44389;51.578;5.456;2023-10-31T01:46:00;99610.78;;;8.59;100.00
58622;BME280;44389;51.578;5.456;2023-10-31T01:48:27;99612.50;;;8.60;100.00
58622;BME280;44389;51.578;5.456;2023-10-31T01:50:54;99610.81;;;8.60;100.00
58622;BME280;44389;51.578;5.456;2023-10-31T01:53:19;99610.84;;;8.62;100.00
58622;BME280;44389;51.578;5.456;2023-10-31T01:55:45;99607.44;;;8.63;100.00
58622;BME280;44389;51.578;5.456;2023-10-31T01:58:11;99608.25;;;8.62;100.00
58622;BME280;44389;51.578;5.456;2023-10-31T02:00:40;99610.84;;;8.63;100.00
58622;BME280;44389;51.578;5.456;2023-10-31T02:03:07;99612.56;;;8.63;100.00
58622;BME280;44389;51.578;5.456;2023-10-31T02:05:33;99617.72;;;8.63;100.00
58622;BME280;44389;51.578;5.456;2023-10-31T02:08:00;99622.84;;;8.63;100.00
58622;BME280;44389;51.578;5.456;2023-10-31T02:10:25;99627.16;;;8.64;100.00
58622;BME280;44389;51.578;5.456;2023-10-31T02:12:50;99626.28;;;8.65;100.00
58622;BME280;44389;51.578;5.456;2023-10-31T02:15:15;99629.72;;;8.64;100.00
58622;BME280;44389;51.578;5.456;2023-10-31T02:17:41;99632.28;;;8.64;100.00
58622;BME280;44389;51.578;5.456;2023-10-31T02:20:06;99629.72;;;8.64;100.00
58622;BME280;44389;51.578;5.456;2023-10-31T02:22:32;99629.75;;;8.67;100.00
58622;BME280;44389;51.578;5.456;2023-10-31T02:24:57;99625.53;;;8.69;100.00
58622;BME280;44389;51.578;5.456;2023-10-31T02:27:22;99616.13;;;8.71;100.00
58622;BME280;44389;51.578;5.456;2023-10-31T02:29:48;99623.84;;;8.72;100.00
58622;BME280;44389;51.578;5.456;2023-10-31T02:32:13;99626.47;;;8.74;100.00
58622;BME280;44389;51.578;5.456;2023-10-31T02:34:38;99623.03;;;8.75;100.00
58622;BME280;44389;51.578;5.456;2023-10-31T02:37:04;99624.78;;;8.76;100.00
58622;BME280;44389;51.578;5.456;2023-10-31T02:39:30;99627.38;;;8.78;100.00
58622;BME280;44389;51.578;5.456;2023-10-31T02:41:55;99624.84;;;8.79;100.00
58622;BME280;44389;51.578;5.456;2023-10-31T02:44:21;99629.13;;;8.80;100.00
58622;BME280;44389;51.578;5.456;2023-10-31T02:46:46;99630.84;;;8.81;100.00
58622;BME280;44389;51.578;5.456;2023-10-31T02:49:11;99631.75;;;8.83;100.00
58622;BME280;44389;51.578;5.456;2023-10-31T02:51:36;99639.50;;;8.85;100.00
58622;BME280;44389;51.578;5.456;2023-10-31T02:54:02;99638.69;;;8.87;100.00
58622;BME280;44389;51.578;5.456;2023-10-31T02:56:27;99637.78;;;8.87;100.00
58622;BME280;44389;51.578;5.456;2023-10-31T02:58:52;99639.53;;;8.88;100.00
58622;BME280;44389;51.578;5.456;2023-10-31T03:01:18;99640.44;;;8.90;100.00
58622;BME280;44389;51.578;5.456;2023-10-31T03:03:45;99650.72;;;8.92;100.00
58622;BME280;44389;51.578;5.456;2023-10-31T03:06:10;99656.72;;;8.92;100.00
58622;BME280;44389;51.578;5.456;2023-10-31T03:08:36;99659.34;;;8.94;100.00
58622;BME280;44389;51.578;5.456;2023-10-31T03:11:01;99664.47;;;8.94;100.00
58622;BME280;44389;51.578;5.456;2023-10-31T03:13:26;99655.06;;;8.94;100.00
58622;BME280;44389;51.578;5.456;2023-10-31T03:15:52;99667.09;;;8.97;100.00
58622;BME280;44389;51.578;5.456;2023-10-31T03:18:17;99671.31;;;8.95;100.00
58622;BME280;44389;51.578;5.456;2023-10-31T03:20:44;99677.34;;;8.95;100.00
58622;BME280;44389;51.578;5.456;2023-10-31T03:23:11;99665.31;;;8.93;100.00
58622;BME280;44389;51.578;5.456;2023-10-31T03:25:36;99677.28;;;8.92;100.00
58622;BME280;44389;51.578;5.456;2023-10-31T03:28:02;99676.44;;;8.92;100.00
58622;BME280;44389;51.578;5.456;2023-10-31T03:30:27;99682.41;;;8.90;100.00
58622;BME280;44389;51.578;5.456;2023-10-31T03:32:52;99684.97;;;8.90;100.00
58622;BME280;44389;51.578;5.456;2023-10-31T03:35:17;99681.56;;;8.92;100.00
58622;BME280;44389;51.578;5.456;2023-10-31T03:37:43;99694.41;;;8.92;100.00
58622;BME280;44389;51.578;5.456;2023-10-31T03:40:08;99700.38;;;8.90;100.00
58622;BME280;44389;51.578;5.456;2023-10-31T03:42:34;99695.25;;;8.90;100.00
58622;BME280;44389;51.578;5.456;2023-10-31T03:44:59;99696.97;;;8.92;100.00
58622;BME280;44389;51.578;5.456;2023-10-31T03:47:24;99697.81;;;8.90;100.00
58622;BME280;44389;51.578;5.456;2023-10-31T03:49:50;99705.53;;;8.90;100.00
58622;BME280;44389;51.578;5.456;2023-10-31T03:52:15;99708.09;;;8.90;100.00
58622;BME280;44389;51.578;5.456;2023-10-31T03:54:40;99715.81;;;8.90;100.00
58622;BME280;44389;51.578;5.456;2023-10-31T03:57:06;99713.22;;;8.90;100.00
58622;BME280;44389;51.578;5.456;2023-10-31T03:59:31;99718.38;;;8.90;100.00
58622;BME280;44389;51.578;5.456;2023-10-31T04:01:56;99723.50;;;8.90;100.00
58622;BME280;44389;51.578;5.456;2023-10-31T04:04:21;99720.97;;;8.92;100.00
58622;BME280;44389;51.578;5.456;2023-10-31T04:06:47;99726.06;;;8.90;100.00
58622;BME280;44389;51.578;5.456;2023-10-31T04:09:12;99732.97;;;8.92;100.00
58622;BME280;44389;51.578;5.456;2023-10-31T04:11:39;99733.78;;;8.90;100.00
58622;BME280;44389;51.578;5.456;2023-10-31T04:14:04;99733.78;;;8.90;100.00
58622;BME280;44389;51.578;5.456;2023-10-31T04:16:31;99732.97;;;8.92;100.00
58622;BME280;44389;51.578;5.456;2023-10-31T04:18:56;99732.97;;;8.92;100.00
58622;BME280;44389;51.578;5.456;2023-10-31T04:21:21;99736.34;;;8.90;100.00
58622;BME280;44389;51.578;5.456;2023-10-31T04:23:46;99743.22;;;8.90;100.00
58622;BME280;44389;51.578;5.456;2023-10-31T04:26:12;99747.53;;;8.91;100.00
58622;BME280;44389;51.578;5.456;2023-10-31T04:28:37;99743.25;;;8.92;100.00
58622;BME280;44389;51.578;5.456;2023-10-31T04:31:02;99747.47;;;8.89;100.00
58622;BME280;44389;51.578;5.456;2023-10-31T04:33:29;99737.25;;;8.91;100.00
58622;BME280;44389;51.578;5.456;2023-10-31T04:35:55;99748.34;;;8.88;100.00
58622;BME280;44389;51.578;5.456;2023-10-31T04:38:20;99756.06;;;8.90;100.00
58622;BME280;44389;51.578;5.456;2023-10-31T04:40:45;99760.28;;;8.88;100.00
58622;BME280;44389;51.578;5.456;2023-10-31T04:43:10;99765.47;;;8.89;100.00
58622;BME280;44389;51.578;5.456;2023-10-31T04:45:36;99773.94;;;8.85;100.00
58622;BME280;44389;51.578;5.456;2023-10-31T04:48:01;99767.06;;;8.84;100.00
58622;BME280;44389;51.578;5.456;2023-10-31T04:50:26;99773.94;;;8.85;100.00
58622;BME280;44389;51.578;5.456;2023-10-31T04:52:51;99774.78;;;8.84;100.00
58622;BME280;44389;51.578;5.456;2023-10-31T04:55:17;99780.78;;;8.83;100.00
58622;BME280;44389;51.578;5.456;2023-10-31T04:57:42;99786.75;;;8.82;100.00
58622;BME280;44389;51.578;5.456;2023-10-31T05:00:08;99784.16;;;8.81;100.00
58622;BME280;44389;51.578;5.456;2023-10-31T05:02:33;99784.13;;;8.79;100.00
58622;BME280;44389;51.578;5.456;2023-10-31T05:04:59;99785.78;;;8.77;100.00
58622;BME280;44389;51.578;5.456;2023-10-31T05:07:24;99785.75;;;8.74;100.00
58622;BME280;44389;51.578;5.456;2023-10-31T05:09:50;99790.81;;;8.71;100.00
58622;BME280;44389;51.578;5.456;2023-10-31T05:12:15;99794.19;;;8.70;100.00
58622;BME280;44389;51.578;5.456;2023-10-31T05:14:40;99793.34;;;8.69;100.00
58622;BME280;44389;51.578;5.456;2023-10-31T05:17:06;99791.59;;;8.68;100.00
58622;BME280;44389;51.578;5.456;2023-10-31T05:19:31;99789.06;;;8.70;100.00
58622;BME280;44389;51.578;5.456;2023-10-31T05:21:56;99782.13;;;8.66;100.00
58622;BME280;44389;51.578;5.456;2023-10-31T05:24:22;99779.59;;;8.67;100.00
58622;BME280;44389;51.578;5.456;2023-10-31T05:26:47;99777.88;;;8.66;100.00
58622;BME280;44389;51.578;5.456;2023-10-31T05:29:12;99786.41;;;8.65;100.00
58622;BME280;44389;51.578;5.456;2023-10-31T05:31:37;99783.81;;;8.64;100.00
58622;BME280;44389;51.578;5.456;2023-10-31T05:34:03;99782.94;;;8.63;100.00
58622;BME280;44389;51.578;5.456;2023-10-31T05:36:32;99792.34;;;8.63;100.00
58622;BME280;44389;51.578;5.456;2023-10-31T05:38:57;99806.06;;;8.63;100.00
58622;BME280;44389;51.578;5.456;2023-10-31T05:41:22;99814.56;;;8.61;100.00
58622;BME280;44389;51.578;5.456;2023-10-31T05:43:48;99816.25;;;8.59;100.00
58622;BME280;44389;51.578;5.456;2023-10-31T05:46:13;99823.09;;;8.60;100.00
58622;BME280;44389;51.578;5.456;2023-10-31T05:48:41;99820.50;;;8.58;100.00
58622;BME280;44389;51.578;5.456;2023-10-31T05:51:17;99829.09;;;8.59;100.00
58622;BME280;44389;51.578;5.456;2023-10-31T05:53:45;99832.50;;;8.59;100.00
58622;BME280;44389;51.578;5.456;2023-10-31T05:56:15;99835.09;;;8.59;100.00
58622;BME280;44389;51.578;5.456;2023-10-31T05:58:41;99833.38;;;8.60;100.00
58622;BME280;44389;51.578;5.456;2023-10-31T06:01:07;99834.25;;;8.60;100.00
58622;BME280;44389;51.578;5.456;2023-10-31T06:03:36;99844.53;;;8.60;100.00
58622;BME280;44389;51.578;5.456;2023-10-31T06:06:01;99851.44;;;8.63;100.00
58622;BME280;44389;51.578;5.456;2023-10-31T06:08:27;99853.13;;;8.62;100.00
58622;BME280;44389;51.578;5.456;2023-10-31T06:10:55;99860.81;;;8.62;100.00
58622;BME280;44389;51.578;5.456;2023-10-31T06:13:21;99869.41;;;8.63;100.00
58622;BME280;44389;51.578;5.456;2023-10-31T06:15:47;99877.94;;;8.62;100.00
58622;BME280;44389;51.578;5.456;2023-10-31T06:18:12;99877.94;;;8.62;100.00
58622;BME280;44389;51.578;5.456;2023-10-31T06:20:38;99872.81;;;8.62;100.00
58622;BME280;44389;51.578;5.456;2023-10-31T06:23:04;99879.66;;;8.61;100.00
58622;BME280;44389;51.578;5.456;2023-10-31T06:25:30;99882.22;;;8.61;100.00
58622;BME280;44389;51.578;5.456;2023-10-31T06:27:55;99882.16;;;8.58;100.00
58622;BME280;44389;51.578;5.456;2023-10-31T06:30:20;99883.84;;;8.57;100.00
58622;BME280;44389;51.578;5.456;2023-10-31T06:32:46;99894.97;;;8.56;100.00
58622;BME280;44389;51.578;5.456;2023-10-31T06:35:11;99890.66;;;8.55;100.00
58622;BME280;44389;51.578;5.456;2023-10-31T06:37:37;99893.16;;;8.52;100.00
58622;BME280;44389;51.578;5.456;2023-10-31T06:40:04;99894.91;;;8.53;100.00
58622;BME280;44389;51.578;5.456;2023-10-31T06:42:30;99903.50;;;8.55;100.00
58622;BME280;44389;51.578;5.456;2023-10-31T06:44:55;99894.91;;;8.53;100.00
58622;BME280;44389;51.578;5.456;2023-10-31T06:47:20;99900.03;;;8.53;100.00
58622;BME280;44389;51.578;5.456;2023-10-31T06:49:46;99902.59;;;8.53;100.00
58622;BME280;44389;51.578;5.456;2023-10-31T06:52:11;99905.16;;;8.53;100.00
58622;BME280;44389;51.578;5.456;2023-10-31T06:54:36;99906.84;;;8.53;100.00
58622;BME280;44389;51.578;5.456;2023-10-31T06:57:01;99907.78;;;8.55;100.00
58622;BME280;44389;51.578;5.456;2023-10-31T06:59:27;99916.31;;;8.55;100.00
58622;BME280;44389;51.578;5.456;2023-10-31T07:01:54;99919.00;;;8.59;100.00
58622;BME280;44389;51.578;5.456;2023-10-31T07:04:19;99928.41;;;8.60;100.00
58622;BME280;44389;51.578;5.456;2023-10-31T07:06:45;99923.22;;;8.56;100.00
58622;BME280;44389;51.578;5.456;2023-10-31T07:09:10;99926.69;;;8.59;100.00
58622;BME280;44389;51.578;5.456;2023-10-31T07:11:35;99921.59;;;8.60;100.00
58622;BME280;44389;51.578;5.456;2023-10-31T07:14:01;99924.13;;;8.59;100.00
58622;BME280;44389;51.578;5.456;2023-10-31T07:16:32;99921.63;;;8.62;100.00
58622;BME280;44389;51.578;5.456;2023-10-31T07:18:57;99918.38;;;8.70;100.00
58622;BME280;44389;51.578;5.456;2023-10-31T07:21:22;99922.59;;;8.67;100.00
58622;BME280;44389;51.578;5.456;2023-10-31T07:23:48;99918.34;;;8.69;100.00
58622;BME280;44389;51.578;5.456;2023-10-31T07:26:13;99926.06;;;8.69;100.00
58622;BME280;44389;51.578;5.456;2023-10-31T07:28:38;99928.69;;;8.72;100.00
58622;BME280;44389;51.578;5.456;2023-10-31T07:31:04;99932.09;;;8.71;100.00
58622;BME280;44389;51.578;5.456;2023-10-31T07:33:29;99923.53;;;8.70;100.00
58622;BME280;44389;51.578;5.456;2023-10-31T07:35:55;99925.19;;;8.68;100.00
58622;BME280;44389;51.578;5.456;2023-10-31T07:38:20;99929.38;;;8.65;100.00
58622;BME280;44389;51.578;5.456;2023-10-31T07:40:45;99931.84;;;8.60;100.00
58622;BME280;44389;51.578;5.456;2023-10-31T07:43:11;99942.94;;;8.57;100.00
58622;BME280;44389;51.578;5.456;2023-10-31T07:45:36;99932.63;;;8.56;100.00
58622;BME280;44389;51.578;5.456;2023-10-31T07:48:01;99943.72;;;8.55;100.00
58622;BME280;44389;51.578;5.456;2023-10-31T07:50:27;99935.13;;;8.54;100.00
58622;BME280;44389;51.578;5.456;2023-10-31T07:52:52;99934.31;;;8.55;100.00
58622;BME280;44389;51.578;5.456;2023-10-31T07:55:18;99936.91;;;8.57;100.00
58622;BME280;44389;51.578;5.456;2023-10-31T07:57:43;99937.84;;;8.61;100.00
58622;BME280;44389;51.578;5.456;2023-10-31T08:00:10;99943.13;;;8.67;100.00
58622;BME280;44389;51.578;5.456;2023-10-31T08:02:36;99953.56;;;8.73;100.00
58622;BME280;44389;51.578;5.456;2023-10-31T08:05:01;99953.59;;;8.76;100.00
58622;BME280;44389;51.578;5.456;2023-10-31T08:07:27;99958.94;;;8.85;100.00
58622;BME280;44389;51.578;5.456;2023-10-31T08:09:58;99958.34;;;8.97;100.00
58622;BME280;44389;51.578;5.456;2023-10-31T08:12:23;99963.56;;;9.00;100.00
58622;BME280;44389;51.578;5.456;2023-10-31T08:14:48;99963.66;;;9.05;100.00
58622;BME280;44389;51.578;5.456;2023-10-31T08:17:14;99961.22;;;9.11;100.00
58622;BME280;44389;51.578;5.456;2023-10-31T08:19:39;99963.91;;;9.16;100.00
58622;BME280;44389;51.578;5.456;2023-10-31T08:22:04;99965.81;;;9.26;100.00
58622;BME280;44389;51.578;5.456;2023-10-31T08:24:30;99956.41;;;9.28;100.00
58622;BME280;44389;51.578;5.456;2023-10-31T08:26:55;99964.25;;;9.33;100.00
58622;BME280;44389;51.578;5.456;2023-10-31T08:29:21;99967.81;;;9.41;100.00
58622;BME280;44389;51.578;5.456;2023-10-31T08:31:46;99967.81;;;9.41;100.00
58622;BME280;44389;51.578;5.456;2023-10-31T08:34:11;99970.47;;;9.44;100.00
58622;BME280;44389;51.578;5.456;2023-10-31T08:36:37;99979.16;;;9.49;100.00
58622;BME280;44389;51.578;5.456;2023-10-31T08:39:02;99979.19;;;9.51;100.00
58622;BME280;44389;51.578;5.456;2023-10-31T08:41:28;99979.03;;;9.43;100.00
58622;BME280;44389;51.578;5.456;2023-10-31T08:43:53;99985.13;;;9.48;100.00
58622;BME280;44389;51.578;5.456;2023-10-31T08:46:19;99988.47;;;9.44;100.00
58622;BME280;44389;51.578;5.456;2023-10-31T08:48:44;99995.47;;;9.51;100.00
58622;BME280;44389;51.578;5.456;2023-10-31T08:51:10;99989.50;;;9.52;100.00
58622;BME280;44389;51.578;5.456;2023-10-31T08:53:35;99992.28;;;9.63;100.00
58622;BME280;44389;51.578;5.456;2023-10-31T08:56:00;100008.59;;;9.64;100.00
58622;BME280;44389;51.578;5.456;2023-10-31T08:58:27;100008.59;;;9.64;100.00
58622;BME280;44389;51.578;5.456;2023-10-31T09:00:53;100012.06;;;9.66;100.00
58622;BME280;44389;51.578;5.456;2023-10-31T09:03:18;100020.00;;;9.78;100.00
58622;BME280;44389;51.578;5.456;2023-10-31T09:05:44;100028.66;;;9.82;100.00
58622;BME280;44389;51.578;5.456;2023-10-31T09:08:09;100026.91;;;9.81;100.00
58622;BME280;44389;51.578;5.456;2023-10-31T09:10:36;100029.59;;;9.85;100.00
58622;BME280;44389;51.578;5.456;2023-10-31T09:13:04;100032.16;;;9.84;100.00
58622;BME280;44389;51.578;5.456;2023-10-31T09:15:30;100041.81;;;9.96;100.00
58622;BME280;44389;51.578;5.456;2023-10-31T09:17:55;100039.88;;;9.85;100.00
58622;BME280;44389;51.578;5.456;2023-10-31T09:20:20;100043.28;;;9.84;100.00
58622;BME280;44389;51.578;5.456;2023-10-31T09:22:46;100046.78;;;9.86;100.00
58622;BME280;44389;51.578;5.456;2023-10-31T09:25:11;100045.97;;;9.89;100.00
58622;BME280;44389;51.578;5.456;2023-10-31T09:27:38;100051.28;;;9.97;100.00
58622;BME280;44389;51.578;5.456;2023-10-31T09:30:04;100062.53;;;10.02;100.00
58622;BME280;44389;51.578;5.456;2023-10-31T09:32:30;100062.19;;;10.31;100.00
58622;BME280;44389;51.578;5.456;2023-10-31T09:34:55;100064.22;;;10.46;100.00
58622;BME280;44389;51.578;5.456;2023-10-31T09:37:20;100070.91;;;10.37;100.00
58622;BME280;44389;51.578;5.456;2023-10-31T09:39:46;100080.09;;;10.25;100.00
58622;BME280;44389;51.578;5.456;2023-10-31T09:42:11;100090.28;;;10.18;100.00
58622;BME280;44389;51.578;5.456;2023-10-31T09:44:36;100071.94;;;10.46;100.00
58622;BME280;44389;51.578;5.456;2023-10-31T09:47:02;100078.66;;;10.90;100.00
58622;BME280;44389;51.578;5.456;2023-10-31T09:49:27;100079.63;;;10.96;100.00
58622;BME280;44389;51.578;5.456;2023-10-31T09:51:53;100085.53;;;10.91;100.00
58622;BME280;44389;51.578;5.456;2023-10-31T09:54:19;100082.28;;;11.02;100.00
58622;BME280;44389;51.578;5.456;2023-10-31T09:56:45;100085.09;;;11.18;100.00
58622;BME280;44389;51.578;5.456;2023-10-31T09:59:10;100096.88;;;10.99;100.00
58622;BME280;44389;51.578;5.456;2023-10-31T10:01:36;100092.09;;;10.71;100.00
58622;BME280;44389;51.578;5.456;2023-10-31T10:04:01;100103.03;;;10.57;100.00
58622;BME280;44389;51.578;5.456;2023-10-31T10:06:27;100100.09;;;10.36;100.00
58622;BME280;44389;51.578;5.456;2023-10-31T10:08:52;100110.19;;;10.27;100.00
58622;BME280;44389;51.578;5.456;2023-10-31T10:11:18;100112.56;;;10.16;100.00
58622;BME280;44389;51.578;5.456;2023-10-31T10:13:44;100114.03;;;10.03;100.00
58622;BME280;44389;51.578;5.456;2023-10-31T10:16:09;100119.06;;;9.99;100.00
58622;BME280;44389;51.578;5.456;2023-10-31T10:18:36;100129.34;;;9.97;100.00
58622;BME280;44389;51.578;5.456;2023-10-31T10:21:05;100128.59;;;10.03;100.00
58622;BME280;44389;51.578;5.456;2023-10-31T10:23:31;100133.09;;;10.13;100.00
58622;BME280;44389;51.578;5.456;2023-10-31T10:25:58;100134.66;;;10.05;100.00
58622;BME280;44389;51.578;5.456;2023-10-31T10:28:24;100133.97;;;10.12;100.00
58622;BME280;44389;51.578;5.456;2023-10-31T10:30:51;100136.75;;;10.25;100.00
58622;BME280;44389;51.578;5.456;2023-10-31T10:33:17;100133.84;;;10.52;100.00
58622;BME280;44389;51.578;5.456;2023-10-31T10:35:43;100132.34;;;10.63;100.00
58622;BME280;44389;51.578;5.456;2023-10-31T10:38:13;100143.59;;;10.68;100.00
58622;BME280;44389;51.578;5.456;2023-10-31T10:40:40;100152.13;;;10.64;100.00
58622;BME280;44389;51.578;5.456;2023-10-31T10:43:12;100149.63;;;10.69;100.00
58622;BME280;44389;51.578;5.456;2023-10-31T10:45:41;100149.53;;;10.63;100.00
58622;BME280;44389;51.578;5.456;2023-10-31T10:48:11;100154.53;;;10.55;100.00
58622;BME280;44389;51.578;5.456;2023-10-31T10:50:41;100158.47;;;10.36;100.00
58622;BME280;44389;51.578;5.456;2023-10-31T10:55:41;100162.47;;;10.21;100.00
58622;BME280;44389;51.578;5.456;2023-10-31T11:01:01;100158.34;;;10.31;100.00
58622;BME280;44389;51.578;5.456;2023-10-31T11:03:29;100155.94;;;10.39;100.00
58622;BME280;44389;51.578;5.456;2023-10-31T11:05:55;100163.16;;;10.59;100.00
58622;BME280;44389;51.578;5.456;2023-10-31T11:08:20;100160.28;;;10.89;100.00
58622;BME280;44389;51.578;5.456;2023-10-31T11:10:48;100168.16;;;10.98;100.00
58622;BME280;44389;51.578;5.456;2023-10-31T11:13:15;100161.91;;;10.82;100.00
58622;BME280;44389;51.578;5.456;2023-10-31T11:15:41;100169.34;;;10.65;100.00
58622;BME280;44389;51.578;5.456;2023-10-31T11:18:07;100170.03;;;10.57;100.00
58622;BME280;44389;51.578;5.456;2023-10-31T11:20:33;100168.13;;;10.48;100.00
58622;BME280;44389;51.578;5.456;2023-10-31T11:23:01;100169.84;;;10.47;100.00
58622;BME280;44389;51.578;5.456;2023-10-31T11:25:31;100171.09;;;10.68;100.00
58622;BME280;44389;51.578;5.456;2023-10-31T11:28:09;100171.84;;;10.62;100.00
58622;BME280;44389;51.578;5.456;2023-10-31T11:30:35;100177.13;;;10.70;100.00
58622;BME280;44389;51.578;5.456;2023-10-31T11:33:01;100171.59;;;10.97;100.00
58622;BME280;44389;51.578;5.456;2023-10-31T11:35:33;100178.06;;;11.24;100.00
58622;BME280;44389;51.578;5.456;2023-10-31T11:38:09;100179.56;;;11.11;100.00
58622;BME280;44389;51.578;5.456;2023-10-31T11:40:58;100183.09;;;11.16;100.00
58622;BME280;44389;51.578;5.456;2023-10-31T11:43:22;100177.94;;;11.16;100.00
58622;BME280;44389;51.578;5.456;2023-10-31T11:45:47;100182.94;;;11.07;100.00
58622;BME280;44389;51.578;5.456;2023-10-31T11:48:14;100182.78;;;10.98;100.00
58622;BME280;44389;51.578;5.456;2023-10-31T11:50:40;100176.75;;;10.97;100.00
58622;BME280;44389;51.578;5.456;2023-10-31T11:53:10;100175.06;;;10.98;100.00
58622;BME280;44389;51.578;5.456;2023-10-31T11:55:44;100181.19;;;11.06;100.00
58622;BME280;44389;51.578;5.456;2023-10-31T11:58:22;100184.13;;;11.26;100.00
58622;BME280;44389;51.578;5.456;2023-10-31T12:00:50;100182.53;;;11.36;100.00
58622;BME280;44389;51.578;5.456;2023-10-31T12:03:19;100174.38;;;11.63;100.00
58622;BME280;44389;51.578;5.456;2023-10-31T12:05:58;100177.00;;;11.68;100.00
58622;BME280;44389;51.578;5.456;2023-10-31T12:08:32;100175.19;;;11.61;100.00
58622;BME280;44389;51.578;5.456;2023-10-31T12:11:18;100180.28;;;11.59;100.00
58622;BME280;44389;51.578;5.456;2023-10-31T12:14:03;100182.38;;;11.85;100.00
58622;BME280;44389;51.578;5.456;2023-10-31T12:16:34;100182.66;;;12.02;100.00
58622;BME280;44389;51.578;5.456;2023-10-31T12:19:04;100175.56;;;11.89;100.00
58622;BME280;44389;51.578;5.456;2023-10-31T12:21:36;100180.59;;;11.79;100.00
58622;BME280;44389;51.578;5.456;2023-10-31T12:24:06;100180.38;;;11.64;100.00
58622;BME280;44389;51.578;5.456;2023-10-31T12:26:35;100180.41;;;11.67;100.00
58622;BME280;44389;51.578;5.456;2023-10-31T12:29:11;100186.78;;;11.91;100.00
58622;BME280;44389;51.578;5.456;2023-10-31T12:31:54;100187.03;;;12.06;100.00
58622;BME280;44389;51.578;5.456;2023-10-31T12:34:24;100182.25;;;12.42;100.00
58622;BME280;44389;51.578;5.456;2023-10-31T12:36:52;100187.59;;;12.59;100.00
58622;BME280;44389;51.578;5.456;2023-10-31T12:39:22;100191.94;;;12.60;100.00
58622;BME280;44389;51.578;5.456;2023-10-31T12:41:48;100188.44;;;12.56;100.00
58622;BME280;44389;51.578;5.456;2023-10-31T12:44:18;100188.31;;;12.42;100.00
58622;BME280;44389;51.578;5.456;2023-10-31T12:46:45;100201.06;;;12.30;100.00
58622;BME280;44389;51.578;5.456;2023-10-31T12:49:12;100196.69;;;12.23;100.00
58622;BME280;44389;51.578;5.456;2023-10-31T12:54:36;100200.31;;;12.37;100.00
58622;BME280;44389;51.578;5.456;2023-10-31T12:57:03;100193.44;;;12.39;100.00
58622;BME280;44389;51.578;5.456;2023-10-31T12:59:30;100204.59;;;12.37;100.00